Time;durP1;ratioP1;P1;durP2;ratioP2;P2;SDS_P1;SDS_P2;PMS_P1;PMS_P2;Temp;Humidity;BMP_temperature;BMP_pressure;BME280_temperature;BME280_humidity;BME280_pressure;Samples;Min_cycle;Max_cycle;Signal;HPM_P1;HPM_P2
2023/06/17 00:02:05;;;;;;;8.32;5.57;;;16.40;90.50;;;;;;5013828;28;20142;-65
2023/06/17 00:04:31;;;;;;;9.57;5.88;;;16.40;91.10;;;;;;5013843;28;20041;-66
2023/06/17 00:06:57;;;;;;;10.05;5.60;;;16.40;92.60;;;;;;5012930;28;20038;-65
2023/06/17 00:09:22;;;;;;;9.95;5.93;;;16.20;94.40;;;;;;4996415;28;20046;-65
2023/06/17 00:11:48;;;;;;;9.77;7.10;;;16.00;94.60;;;;;;5011355;28;20054;-65
2023/06/17 00:14:16;;;;;;;11.57;7.80;;;15.90;97.00;;;;;;4996137;28;20045;-66
2023/06/17 00:16:45;;;;;;;8.80;5.20;;;15.70;98.60;;;;;;5013844;28;20042;-65
2023/06/17 00:19:15;;;;;;;12.48;9.25;;;15.60;99.90;;;;;;5013870;28;20397;-65
2023/06/17 00:21:52;;;;;;;9.80;7.25;;;15.60;99.40;;;;;;5013784;28;20034;-65
2023/06/17 00:24:19;;;;;;;8.82;5.85;;;15.50;99.90;;;;;;5013599;28;20127;-65
2023/06/17 00:26:46;;;;;;;10.48;7.03;;;15.50;99.90;;;;;;5013804;28;20072;-65
2023/06/17 00:29:11;;;;;;;10.68;6.70;;;15.50;99.90;;;;;;5013723;28;20048;-66
2023/06/17 00:31:37;;;;;;;10.32;5.10;;;15.50;99.90;;;;;;5013382;28;20045;-65
2023/06/17 00:34:03;;;;;;;12.48;9.30;;;15.40;99.90;;;;;;5012186;28;20128;-65
2023/06/17 00:36:29;;;;;;;12.32;7.57;;;15.40;99.90;;;;;;5012199;28;20050;-65
2023/06/17 00:38:55;;;;;;;10.18;6.63;;;15.30;99.90;;;;;;5011991;28;20453;-65
2023/06/17 00:41:21;;;;;;;9.45;7.13;;;15.30;99.90;;;;;;5013324;28;20402;-65
2023/06/17 00:43:46;;;;;;;9.30;6.57;;;15.30;99.90;;;;;;5013617;28;20394;-64
2023/06/17 00:46:27;;;;;;;9.50;6.72;;;15.30;99.90;;;;;;5013129;28;20080;-65
2023/06/17 00:48:53;;;;;;;11.27;8.05;;;15.30;99.90;;;;;;5012023;28;20049;-65
2023/06/17 00:51:19;;;;;;;10.45;7.18;;;15.40;99.90;;;;;;4995728;28;20383;-65
2023/06/17 00:53:44;;;;;;;12.32;8.57;;;15.50;99.90;;;;;;5013406;28;20107;-65
2023/06/17 00:56:10;;;;;;;12.60;8.70;;;15.60;99.90;;;;;;5011925;28;20104;-64
2023/06/17 00:58:37;;;;;;;11.68;8.68;;;15.60;99.90;;;;;;5013356;28;20085;-65
2023/06/17 01:01:03;;;;;;;15.43;9.52;;;15.60;99.90;;;;;;5013442;28;20122;-65
2023/06/17 01:03:29;;;;;;;14.00;10.98;;;15.60;99.90;;;;;;5013110;28;20049;-65
2023/06/17 01:05:59;;;;;;;13.60;9.15;;;15.60;99.90;;;;;;4995540;28;20049;-64
2023/06/17 01:08:34;;;;;;;15.57;11.90;;;15.60;99.90;;;;;;5012178;28;20045;-64
2023/06/17 01:11:12;;;;;;;18.15;11.75;;;15.70;99.90;;;;;;5012911;28;20054;-65
2023/06/17 01:13:43;;;;;;;16.73;11.55;;;15.60;99.90;;;;;;5012023;28;20172;-65
2023/06/17 01:16:09;;;;;;;22.80;15.70;;;15.70;99.90;;;;;;5013148;28;20057;-64
2023/06/17 01:18:36;;;;;;;14.48;10.73;;;15.60;99.90;;;;;;5012844;28;20034;-64
2023/06/17 01:21:03;;;;;;;18.45;12.15;;;15.60;99.90;;;;;;5011783;28;20045;-64
2023/06/17 01:23:32;;;;;;;16.50;12.98;;;15.60;99.90;;;;;;5014813;28;20465;-65
2023/06/17 01:25:58;;;;;;;20.05;14.88;;;15.60;99.90;;;;;;5016764;28;20116;-65
2023/06/17 01:28:24;;;;;;;17.05;13.20;;;15.60;99.90;;;;;;5016717;28;20074;-65
2023/06/17 01:30:54;;;;;;;17.58;14.68;;;15.60;99.90;;;;;;5015456;28;20042;-65
2023/06/17 01:33:21;;;;;;;21.33;16.75;;;15.70;99.90;;;;;;5016905;28;20045;-64
2023/06/17 01:36:14;;;;;;;24.38;18.15;;;15.70;99.90;;;;;;5016526;28;20074;-65
2023/06/17 01:38:51;;;;;;;19.48;15.88;;;15.70;99.90;;;;;;4998964;28;20046;-65
2023/06/17 01:41:32;;;;;;;28.13;21.38;;;15.70;99.90;;;;;;5016770;28;20045;-65
2023/06/17 01:43:59;;;;;;;21.52;17.00;;;15.60;99.90;;;;;;5016745;28;20084;-65
2023/06/17 01:46:25;;;;;;;21.85;16.52;;;15.60;99.90;;;;;;5015743;28;20430;-64
2023/06/17 01:48:55;;;;;;;22.25;16.35;;;15.70;99.90;;;;;;5016274;28;20064;-65
2023/06/17 01:51:21;;;;;;;25.25;19.50;;;15.70;99.90;;;;;;5016413;28;20046;-65
2023/06/17 01:53:47;;;;;;;24.30;18.45;;;15.70;99.90;;;;;;5016294;28;20039;-64
2023/06/17 01:56:13;;;;;;;16.33;13.32;;;15.70;99.90;;;;;;5014995;28;20045;-64
2023/06/17 01:58:39;;;;;;;20.52;15.95;;;15.70;99.90;;;;;;5016353;28;20561;-65
2023/06/17 02:01:05;;;;;;;22.27;18.20;;;15.70;99.90;;;;;;5015156;28;20398;-64
2023/06/17 02:03:31;;;;;;;21.40;16.92;;;15.70;99.90;;;;;;5016089;28;20038;-65
2023/06/17 02:05:58;;;;;;;25.73;18.80;;;15.70;99.90;;;;;;5016264;28;20474;-64
2023/06/17 02:08:25;;;;;;;27.15;21.23;;;15.70;99.90;;;;;;5016378;28;20030;-64
2023/06/17 02:10:51;;;;;;;21.95;18.35;;;15.60;99.90;;;;;;5016038;28;20057;-65
2023/06/17 02:13:17;;;;;;;20.30;16.55;;;15.60;99.90;;;;;;5015949;28;20046;-65
2023/06/17 02:15:43;;;;;;;24.30;19.02;;;15.70;99.90;;;;;;5014845;28;20045;-64
2023/06/17 02:18:10;;;;;;;23.90;18.75;;;15.70;99.90;;;;;;5015794;28;20038;-64
2023/06/17 02:20:36;;;;;;;23.17;20.38;;;15.60;99.90;;;;;;5016074;28;20050;-64
2023/06/17 02:23:02;;;;;;;22.20;18.08;;;15.60;99.90;;;;;;4998132;28;20041;-64
2023/06/17 02:25:28;;;;;;;20.75;17.13;;;15.50;99.90;;;;;;5014878;28;20478;-65
2023/06/17 02:27:53;;;;;;;19.92;14.73;;;15.60;99.90;;;;;;5015624;28;20050;-64
2023/06/17 02:30:19;;;;;;;21.08;17.20;;;15.60;99.90;;;;;;5015858;28;20048;-65
2023/06/17 02:32:45;;;;;;;22.73;17.25;;;15.60;99.90;;;;;;5015427;28;20087;-64
2023/06/17 02:35:11;;;;;;;23.63;18.20;;;15.70;99.90;;;;;;5014531;28;20042;-64
2023/06/17 02:37:37;;;;;;;21.95;19.65;;;15.70;99.90;;;;;;5014260;28;20048;-64
2023/06/17 02:40:08;;;;;;;21.25;17.42;;;15.70;99.90;;;;;;5015544;28;20038;-64
2023/06/17 02:42:35;;;;;;;18.90;16.47;;;15.70;99.90;;;;;;5015495;28;20041;-65
2023/06/17 02:45:01;;;;;;;21.52;17.40;;;15.70;99.90;;;;;;5014067;28;20050;-64
2023/06/17 02:47:27;;;;;;;21.65;16.77;;;15.70;99.90;;;;;;5014177;28;20042;-65
2023/06/17 02:49:53;;;;;;;23.15;18.85;;;15.70;99.90;;;;;;5015094;28;20069;-64
2023/06/17 02:52:18;;;;;;;19.80;15.25;;;15.70;99.90;;;;;;5015544;28;20124;-64
2023/06/17 02:54:44;;;;;;;20.77;17.42;;;15.70;99.90;;;;;;5015171;28;20171;-64
2023/06/17 02:57:10;;;;;;;26.75;19.90;;;15.70;99.90;;;;;;5013951;28;20528;-64
2023/06/17 02:59:37;;;;;;;22.73;17.90;;;15.80;99.90;;;;;;5014965;28;20038;-64
2023/06/17 03:02:03;;;;;;;27.27;20.83;;;15.80;99.90;;;;;;4997694;28;20040;-65
2023/06/17 03:04:34;;;;;;;28.60;22.63;;;15.80;99.90;;;;;;5014917;28;20128;-65
2023/06/17 03:07:05;;;;;;;26.40;21.00;;;15.80;99.90;;;;;;5015224;28;20069;-64
2023/06/17 03:09:30;;;;;;;32.40;25.88;;;15.70;99.90;;;;;;5013926;28;20131;-64
2023/06/17 03:11:58;;;;;;;25.63;21.63;;;15.60;99.90;;;;;;5014712;28;20105;-64
2023/06/17 03:14:24;;;;;;;27.35;23.05;;;15.60;99.90;;;;;;5014821;28;20073;-64
2023/06/17 03:16:50;;;;;;;21.45;18.83;;;15.50;99.90;;;;;;5013429;28;20042;-64
2023/06/17 03:19:16;;;;;;;25.50;20.67;;;15.50;99.90;;;;;;5014589;28;20044;-64
2023/06/17 03:21:43;;;;;;;26.95;22.13;;;15.60;99.90;;;;;;5014530;28;20041;-64
2023/06/17 03:24:09;;;;;;;25.02;19.45;;;15.60;99.90;;;;;;5014922;28;20037;-64
2023/06/17 03:26:35;;;;;;;25.25;19.83;;;15.60;99.90;;;;;;5013644;28;20120;-64
2023/06/17 03:29:03;;;;;;;24.35;20.50;;;15.60;99.90;;;;;;5014531;28;20117;-64
2023/06/17 03:31:29;;;;;;;21.08;17.00;;;15.60;99.90;;;;;;5014426;28;20052;-64
2023/06/17 03:33:55;;;;;;;22.92;18.33;;;15.60;99.90;;;;;;5014352;28;20042;-64
2023/06/17 03:36:30;;;;;;;24.80;20.83;;;15.70;99.90;;;;;;5013137;28;20049;-65
2023/06/17 03:38:57;;;;;;;20.92;18.08;;;15.70;99.90;;;;;;5014551;28;20050;-64
2023/06/17 03:41:26;;;;;;;17.27;14.48;;;15.70;99.90;;;;;;5013042;28;20092;-64
2023/06/17 03:43:52;;;;;;;22.77;19.40;;;15.80;99.90;;;;;;5014255;28;20038;-64
2023/06/17 03:46:19;;;;;;;24.80;20.55;;;15.80;99.90;;;;;;5014216;28;20108;-64
2023/06/17 03:48:44;;;;;;;25.38;19.48;;;15.90;99.90;;;;;;5014107;28;20046;-65
2023/06/17 03:51:11;;;;;;;23.50;19.48;;;16.00;99.90;;;;;;5012765;28;20092;-64
2023/06/17 03:53:36;;;;;;;23.40;20.08;;;16.00;99.90;;;;;;5014386;28;20045;-64
2023/06/17 03:56:03;;;;;;;22.52;17.48;;;16.00;99.90;;;;;;4996378;28;20053;-64
2023/06/17 03:58:29;;;;;;;24.45;20.00;;;16.00;99.90;;;;;;5012937;28;20128;-64
2023/06/17 04:00:54;;;;;;;23.30;19.90;;;16.00;99.90;;;;;;5012983;28;20117;-64
2023/06/17 04:03:25;;;;;;;26.75;22.55;;;16.00;99.90;;;;;;5012585;28;20564;-64
2023/06/17 04:05:51;;;;;;;25.00;22.23;;;16.00;99.90;;;;;;5013880;28;20042;-65
2023/06/17 04:08:18;;;;;;;23.13;19.42;;;15.90;99.90;;;;;;4996486;28;20045;-65
2023/06/17 04:10:44;;;;;;;20.48;18.13;;;15.70;99.90;;;;;;5012265;28;20062;-65
2023/06/17 04:13:10;;;;;;;25.58;21.13;;;15.80;99.90;;;;;;5013687;28;20049;-64
2023/06/17 04:15:36;;;;;;;30.52;25.48;;;15.80;99.90;;;;;;5014005;28;20048;-64
2023/06/17 04:18:02;;;;;;;25.05;21.27;;;15.80;99.90;;;;;;5013930;28;20115;-65
2023/06/17 04:20:29;;;;;;;23.65;19.75;;;15.70;99.90;;;;;;5013845;28;20129;-64
2023/06/17 04:22:55;;;;;;;26.73;21.13;;;15.80;99.90;;;;;;5012287;28;20042;-64
2023/06/17 04:25:22;;;;;;;26.63;21.52;;;15.80;99.90;;;;;;5012510;28;20085;-64
2023/06/17 04:27:53;;;;;;;23.63;21.08;;;15.90;99.90;;;;;;4996579;28;20034;-64
2023/06/17 04:30:19;;;;;;;27.27;21.95;;;15.90;99.90;;;;;;5013572;28;20041;-65
2023/06/17 04:32:45;;;;;;;28.33;23.20;;;15.90;99.90;;;;;;4995819;28;20046;-70
2023/06/17 04:35:11;;;;;;;30.63;24.58;;;16.00;99.90;;;;;;5013391;28;20108;-65
2023/06/17 04:37:37;;;;;;;33.15;26.00;;;16.00;99.90;;;;;;5012327;28;20124;-65
2023/06/17 04:40:10;;;;;;;24.70;21.05;;;15.90;99.90;;;;;;5012009;28;20099;-65
2023/06/17 04:42:36;;;;;;;27.17;22.75;;;15.90;99.90;;;;;;5013344;28;20046;-65
2023/06/17 04:45:02;;;;;;;25.42;22.27;;;16.00;99.90;;;;;;5012103;28;20057;-65
2023/06/17 04:47:28;;;;;;;26.45;22.27;;;16.00;99.90;;;;;;5013359;28;20068;-65
2023/06/17 04:49:55;;;;;;;23.85;20.13;;;16.00;99.90;;;;;;5011879;28;20099;-66
2023/06/17 04:52:24;;;;;;;24.35;21.58;;;16.00;99.90;;;;;;5012254;28;20486;-64
2023/06/17 04:54:51;;;;;;;30.33;25.15;;;16.10;99.90;;;;;;5013192;28;20421;-64
2023/06/17 04:57:17;;;;;;;27.20;21.27;;;16.10;99.90;;;;;;5016349;28;20168;-64
2023/06/17 04:59:43;;;;;;;25.67;21.08;;;16.10;99.90;;;;;;5018372;28;20133;-65
2023/06/17 05:02:10;;;;;;;24.27;20.75;;;16.20;99.90;;;;;;5019673;28;20137;-64
2023/06/17 05:04:35;;;;;;;27.05;22.10;;;16.20;99.90;;;;;;5019665;28;20045;-64
2023/06/17 05:07:01;;;;;;;27.00;22.98;;;16.30;99.90;;;;;;5019526;28;20049;-65
2023/06/17 05:09:27;;;;;;;24.60;21.67;;;16.30;99.90;;;;;;5002172;28;20134;-64
2023/06/17 05:11:53;;;;;;;25.23;20.55;;;16.30;99.90;;;;;;5019460;28;20059;-65
2023/06/17 05:14:19;;;;;;;22.77;20.20;;;16.30;99.90;;;;;;5018316;28;20049;-64
2023/06/17 05:16:44;;;;;;;24.15;19.35;;;16.40;99.90;;;;;;5019591;28;20046;-65
2023/06/17 05:19:10;;;;;;;29.75;22.90;;;16.40;99.90;;;;;;5019300;28;20049;-64
2023/06/17 05:21:36;;;;;;;24.05;21.50;;;16.40;99.90;;;;;;5019598;28;20037;-64
2023/06/17 05:24:02;;;;;;;27.40;21.20;;;16.40;99.90;;;;;;5002099;28;20393;-63
2023/06/17 05:26:27;;;;;;;26.20;20.95;;;16.40;99.90;;;;;;5019633;28;20065;-64
2023/06/17 05:28:53;;;;;;;30.30;24.98;;;16.40;99.90;;;;;;5018554;28;20434;-65
2023/06/17 05:31:19;;;;;;;24.25;21.58;;;16.40;99.90;;;;;;5019445;28;20051;-65
2023/06/17 05:33:45;;;;;;;25.92;20.77;;;16.30;99.90;;;;;;5019705;28;20112;-64
2023/06/17 05:36:11;;;;;;;25.27;21.73;;;16.30;99.90;;;;;;5018440;28;20122;-64
2023/06/17 05:38:37;;;;;;;24.23;20.17;;;16.30;99.90;;;;;;5001734;28;20045;-64
2023/06/17 05:41:02;;;;;;;24.20;21.60;;;16.30;99.90;;;;;;5019311;28;20037;-64
2023/06/17 05:43:29;;;;;;;29.15;22.65;;;16.30;99.90;;;;;;5018818;28;20053;-64
2023/06/17 05:45:54;;;;;;;24.70;20.73;;;16.30;99.90;;;;;;5018063;28;20034;-64
2023/06/17 05:48:20;;;;;;;23.92;20.02;;;16.30;99.90;;;;;;5018440;28;20034;-64
2023/06/17 05:50:46;;;;;;;26.17;23.33;;;16.30;99.90;;;;;;5017984;28;20042;-64
2023/06/17 05:53:12;;;;;;;25.77;22.30;;;16.40;99.90;;;;;;5019239;28;20124;-64
2023/06/17 05:55:38;;;;;;;22.98;19.90;;;16.30;99.90;;;;;;5019278;28;20041;-64
2023/06/17 05:58:04;;;;;;;27.50;21.67;;;16.40;99.90;;;;;;5019494;28;20034;-64
2023/06/17 06:00:30;;;;;;;25.60;21.98;;;16.50;99.90;;;;;;5019088;28;20053;-64
2023/06/17 06:02:55;;;;;;;24.95;20.70;;;16.50;99.90;;;;;;5019355;28;20096;-64
2023/06/17 06:05:21;;;;;;;24.13;19.35;;;16.40;99.90;;;;;;5019416;28;20057;-64
2023/06/17 06:07:47;;;;;;;22.63;18.77;;;16.50;99.90;;;;;;5001139;28;20046;-64
2023/06/17 06:10:13;;;;;;;21.17;18.58;;;16.60;99.90;;;;;;5016311;28;20038;-64
2023/06/17 06:12:39;;;;;;;26.30;22.85;;;16.70;99.90;;;;;;5015786;28;20093;-64
2023/06/17 06:15:06;;;;;;;26.60;22.33;;;16.60;99.90;;;;;;5016289;28;20045;-64
2023/06/17 06:17:31;;;;;;;26.60;21.00;;;16.70;99.90;;;;;;4998367;28;20050;-64
2023/06/17 06:19:57;;;;;;;26.52;21.08;;;16.70;99.90;;;;;;5015962;28;20479;-64
2023/06/17 06:22:23;;;;;;;23.05;19.55;;;16.80;99.90;;;;;;5016106;28;20533;-64
2023/06/17 06:24:49;;;;;;;21.02;18.08;;;16.80;99.90;;;;;;5016034;28;20076;-64
2023/06/17 06:27:15;;;;;;;25.35;21.08;;;16.80;99.90;;;;;;5014496;28;20099;-64
2023/06/17 06:29:40;;;;;;;23.55;20.00;;;16.80;99.90;;;;;;5014648;28;20133;-64
2023/06/17 06:32:07;;;;;;;22.83;19.25;;;16.80;99.90;;;;;;5015672;28;20559;-64
2023/06/17 06:34:33;;;;;;;22.63;19.80;;;16.70;99.90;;;;;;5015623;28;20120;-64
2023/06/17 06:36:58;;;;;;;25.70;20.60;;;16.70;99.90;;;;;;5015766;28;20077;-64
2023/06/17 06:39:25;;;;;;;23.80;21.17;;;16.80;99.90;;;;;;5015544;28;20477;-64
2023/06/17 06:41:51;;;;;;;24.52;21.13;;;16.80;99.90;;;;;;5014013;28;20046;-64
2023/06/17 06:44:17;;;;;;;24.25;20.50;;;16.80;99.90;;;;;;5015742;28;20070;-64
2023/06/17 06:46:44;;;;;;;23.35;19.73;;;16.80;99.90;;;;;;5015648;28;20497;-65
2023/06/17 06:49:10;;;;;;;23.98;21.40;;;16.90;99.90;;;;;;5015637;28;20124;-64
2023/06/17 06:51:36;;;;;;;26.92;23.10;;;16.90;99.90;;;;;;5015498;28;20121;-64
2023/06/17 06:54:02;;;;;;;25.38;22.42;;;16.90;99.90;;;;;;5015246;28;20045;-64
2023/06/17 06:56:28;;;;;;;23.92;20.63;;;16.80;99.90;;;;;;5015230;28;20045;-64
2023/06/17 06:58:57;;;;;;;26.48;21.90;;;16.80;99.90;;;;;;5015206;28;20038;-64
2023/06/17 07:01:23;;;;;;;24.23;19.42;;;16.90;99.90;;;;;;5015034;28;20041;-64
2023/06/17 07:03:50;;;;;;;24.23;20.30;;;17.00;99.90;;;;;;5013878;28;20042;-65
2023/06/17 07:06:16;;;;;;;20.63;18.42;;;16.90;99.90;;;;;;5015298;28;20186;-64
2023/06/17 07:08:41;;;;;;;21.55;19.27;;;17.00;99.90;;;;;;5015114;28;20064;-64
2023/06/17 07:11:07;;;;;;;22.27;18.20;;;17.20;99.90;;;;;;5013839;28;20046;-64
2023/06/17 07:13:33;;;;;;;20.83;18.42;;;17.30;99.90;;;;;;5013669;28;20073;-64
2023/06/17 07:15:59;;;;;;;19.70;17.30;;;17.40;99.90;;;;;;5014995;28;20394;-64
2023/06/17 07:18:24;;;;;;;23.95;19.83;;;17.40;99.90;;;;;;5014660;28;20037;-64
2023/06/17 07:20:50;;;;;;;22.77;17.92;;;17.50;99.90;;;;;;5014516;28;20034;-64
2023/06/17 07:23:16;;;;;;;23.27;19.10;;;17.70;99.90;;;;;;5013682;28;20038;-64
2023/06/17 07:25:42;;;;;;;24.33;21.55;;;17.70;99.90;;;;;;5014879;28;20042;-64
2023/06/17 07:28:07;;;;;;;22.75;20.05;;;17.70;99.90;;;;;;5013585;28;20034;-64
2023/06/17 07:30:34;;;;;;;23.17;20.42;;;17.50;99.90;;;;;;5014847;28;20038;-64
2023/06/17 07:33:00;;;;;;;23.10;19.08;;;17.40;99.90;;;;;;5013421;28;20041;-64
2023/06/17 07:35:25;;;;;;;26.13;21.05;;;17.40;99.90;;;;;;5014738;28;20113;-64
2023/06/17 07:37:52;;;;;;;24.15;19.70;;;17.40;99.90;;;;;;5014672;28;20030;-63
2023/06/17 07:40:18;;;;;;;20.58;18.20;;;17.50;99.90;;;;;;5014169;28;20041;-64
2023/06/17 07:42:44;;;;;;;22.75;18.50;;;17.90;99.90;;;;;;5014562;28;20041;-64
2023/06/17 07:45:10;;;;;;;23.52;19.92;;;18.70;99.90;;;;;;5013216;28;20497;-63
2023/06/17 07:47:36;;;;;;;20.80;17.10;;;18.90;99.90;;;;;;5014341;28;20398;-64
2023/06/17 07:50:04;;;;;;;19.85;17.50;;;19.20;99.90;;;;;;5014405;28;20048;-64
2023/06/17 07:52:31;;;;;;;18.60;16.50;;;19.50;99.90;;;;;;5014323;28;20073;-64
2023/06/17 07:54:57;;;;;;;20.30;16.08;;;19.60;99.90;;;;;;5012861;28;20046;-64
2023/06/17 07:57:23;;;;;;;19.70;16.08;;;19.80;99.90;;;;;;5013212;28;20505;-64
2023/06/17 07:59:49;;;;;;;19.15;15.30;;;19.90;99.90;;;;;;5013745;28;20073;-64
2023/06/17 08:02:16;;;;;;;18.83;15.57;;;20.00;99.90;;;;;;5012791;28;20038;-64
2023/06/17 08:04:42;;;;;;;21.85;18.58;;;20.10;99.90;;;;;;5013009;28;20041;-64
2023/06/17 08:07:07;;;;;;;21.67;17.98;;;19.90;99.90;;;;;;5014179;28;20037;-64
2023/06/17 08:09:33;;;;;;;19.85;16.88;;;19.90;99.90;;;;;;5013774;28;20125;-64
2023/06/17 08:11:59;;;;;;;18.58;16.20;;;19.90;99.90;;;;;;5013661;28;20149;-64
2023/06/17 08:14:25;;;;;;;20.13;15.35;;;19.90;99.90;;;;;;5013828;28;20050;-64
2023/06/17 08:16:51;;;;;;;19.65;15.43;;;20.30;99.90;;;;;;5013936;28;20453;-64
2023/06/17 08:19:16;;;;;;;17.70;15.70;;;20.80;99.90;;;;;;5013631;28;20045;-64
2023/06/17 08:21:44;;;;;;;18.90;15.63;;;21.00;99.90;;;;;;5012426;28;20037;-64
2023/06/17 08:24:24;;;;;;;21.08;18.60;;;21.50;99.90;;;;;;5013884;28;20116;-64
2023/06/17 08:26:51;;;;;;;19.42;15.45;;;21.30;99.90;;;;;;5013444;28;20037;-64
2023/06/17 08:29:17;;;;;;;17.50;14.25;;;21.70;99.90;;;;;;5012606;28;20042;-64
2023/06/17 08:31:47;;;;;;;16.90;13.43;;;21.80;99.90;;;;;;5011579;28;20037;-64
2023/06/17 08:34:14;;;;;;;16.45;14.27;;;22.50;99.90;;;;;;5013413;28;20125;-64
2023/06/17 08:36:46;;;;;;;19.60;15.23;;;22.90;99.40;;;;;;4995893;28;20112;-65
2023/06/17 08:39:12;;;;;;;16.30;13.23;;;22.80;98.10;;;;;;5013569;28;20041;-64
2023/06/17 08:41:41;;;;;;;17.15;13.00;;;23.20;98.30;;;;;;5012431;28;20490;-64
2023/06/17 08:44:08;;;;;;;15.20;12.07;;;23.50;96.50;;;;;;5013697;28;20030;-64
2023/06/17 08:46:34;;;;;;;19.25;13.68;;;23.60;96.60;;;;;;4995670;28;20129;-64
2023/06/17 08:49:06;;;;;;;15.80;12.10;;;23.50;93.90;;;;;;5013579;28;20049;-64
2023/06/17 08:51:32;;;;;;;;;;;23.50;94.90;;;;;;5013684;28;20074;-64
2023/06/17 08:53:58;;;;;;;15.70;12.35;;;23.70;94.70;;;;;;5012312;28;19988;-65
2023/06/17 08:56:23;;;;;;;18.50;14.27;;;24.10;94.90;;;;;;5013185;28;20038;-64
2023/06/17 08:58:54;;;;;;;15.55;11.65;;;24.30;92.60;;;;;;5012151;28;20517;-64
2023/06/17 09:01:24;;;;;;;14.38;11.82;;;24.30;93.40;;;;;;5013172;28;20053;-64
2023/06/17 09:03:52;;;;;;;16.80;12.50;;;24.80;93.30;;;;;;5013359;28;20102;-64
2023/06/17 09:06:23;;;;;;;17.67;14.07;;;24.90;92.10;;;;;;5013143;28;20038;-66
2023/06/17 09:08:52;;;;;;;14.70;12.60;;;24.80;90.10;;;;;;5012059;28;20580;-64
2023/06/17 09:11:22;;;;;;;17.13;11.68;;;25.00;91.00;;;;;;5011853;28;20058;-64
2023/06/17 09:13:51;;;;;;;14.82;11.45;;;25.40;90.70;;;;;;5013393;28;20486;-64
2023/06/17 09:16:23;;;;;;;15.98;11.82;;;25.50;89.50;;;;;;5011695;28;20108;-64
2023/06/17 09:18:57;;;;;;;14.05;11.00;;;25.20;88.60;;;;;;5012959;28;20141;-64
2023/06/17 09:21:24;;;;;;;14.25;11.25;;;25.40;87.70;;;;;;5013222;28;20044;-64
2023/06/17 09:23:57;;;;;;;19.55;15.18;;;25.40;88.00;;;;;;5012067;28;20115;-65
2023/06/17 09:26:34;;;;;;;16.17;13.45;;;24.20;86.90;;;;;;5012900;28;20041;-66
2023/06/17 09:29:08;;;;;;;14.55;12.52;;;24.70;88.40;;;;;;5012900;28;20046;-64
2023/06/17 09:31:47;;;;;;;13.95;10.68;;;24.60;88.50;;;;;;5013109;28;20117;-64
2023/06/17 09:34:13;;;;;;;15.38;12.02;;;24.90;89.40;;;;;;5011944;28;20054;-64
2023/06/17 09:36:39;;;;;;;15.27;13.68;;;24.80;88.70;;;;;;5012895;28;20137;-64
2023/06/17 09:39:08;;;;;;;14.55;11.70;;;24.50;87.80;;;;;;5011455;28;20117;-65
2023/06/17 09:41:40;;;;;;;15.57;11.57;;;24.60;89.30;;;;;;5012834;28;20064;-67
2023/06/17 09:44:06;;;;;;;15.65;11.55;;;24.90;87.40;;;;;;5015099;28;20042;-65
2023/06/17 09:46:39;;;;;;;13.77;10.75;;;24.80;86.20;;;;;;5015438;28;20390;-64
2023/06/17 09:49:15;;;;;;;14.00;9.88;;;24.90;86.90;;;;;;5016477;28;20140;-64
2023/06/17 09:51:41;;;;;;;13.07;9.90;;;25.20;87.20;;;;;;5015449;28;20088;-64
2023/06/17 09:54:08;;;;;;;13.98;9.88;;;25.50;86.30;;;;;;5016637;28;20042;-65
2023/06/17 09:56:35;;;;;;;12.75;10.20;;;25.70;84.30;;;;;;4998688;28;20088;-64
2023/06/17 09:59:03;;;;;;;13.18;10.02;;;25.50;83.60;;;;;;5016492;28;20038;-65
2023/06/17 10:01:36;;;;;;;15.80;9.88;;;25.80;83.40;;;;;;5016532;28;20073;-64
2023/06/17 10:04:02;;;;;;;14.90;10.82;;;26.00;81.80;;;;;;5016069;28;20045;-65
2023/06/17 10:06:30;;;;;;;12.15;9.02;;;25.90;80.20;;;;;;5015175;28;20042;-65
2023/06/17 10:08:57;;;;;;;13.40;10.10;;;26.00;82.40;;;;;;5016071;28;20038;-65
2023/06/17 10:11:27;;;;;;;12.57;8.55;;;26.10;80.00;;;;;;5016036;28;20521;-66
2023/06/17 10:14:07;;;;;;;11.13;7.85;;;26.30;77.50;;;;;;5015888;28;20132;-65
2023/06/17 10:16:41;;;;;;;11.38;8.63;;;26.60;75.90;;;;;;5016270;28;20179;-64
2023/06/17 10:19:10;;;;;;;13.88;8.48;;;26.80;75.40;;;;;;5014912;28;20034;-64
2023/06/17 10:21:42;;;;;;;12.60;8.27;;;27.20;75.00;;;;;;5015932;28;20034;-64
2023/06/17 10:24:08;;;;;;;9.82;7.22;;;27.50;73.30;;;;;;5015858;28;20076;-64
2023/06/17 10:26:34;;;;;;;10.15;7.28;;;27.60;69.70;;;;;;5015979;28;20037;-64
2023/06/17 10:29:06;;;;;;;10.88;7.57;;;27.40;67.20;;;;;;5015681;28;20053;-65
2023/06/17 10:31:39;;;;;;;9.38;7.22;;;27.40;66.70;;;;;;5015948;28;20413;-65
2023/06/17 10:34:08;;;;;;;10.40;6.70;;;27.50;66.10;;;;;;5015548;28;20045;-64
2023/06/17 10:36:35;;;;;;;9.75;6.82;;;27.80;65.90;;;;;;5015898;28;20045;-64
2023/06/17 10:39:07;;;;;;;10.10;6.90;;;28.00;65.50;;;;;;5014030;28;20184;-66
2023/06/17 10:41:42;;;;;;;9.25;6.97;;;28.20;63.10;;;;;;5014290;28;20108;-65
2023/06/17 10:44:20;;;;;;;10.80;6.82;;;28.00;62.80;;;;;;5014452;28;20085;-65
2023/06/17 10:46:50;;;;;;;11.35;7.05;;;28.10;62.70;;;;;;5014359;28;20038;-65
2023/06/17 10:49:17;;;;;;;10.25;7.18;;;28.10;62.40;;;;;;5015369;28;20041;-65
2023/06/17 10:51:46;;;;;;;9.52;6.93;;;28.20;62.30;;;;;;5015133;28;20124;-65
2023/06/17 10:54:12;;;;;;;10.95;7.80;;;28.30;60.10;;;;;;5014841;28;20038;-65
2023/06/17 10:56:53;;;;;;;10.80;7.63;;;27.80;59.70;;;;;;5014776;28;20042;-65
2023/06/17 10:59:25;;;;;;;9.80;6.90;;;27.90;61.80;;;;;;5015201;28;20053;-65
2023/06/17 11:01:52;;;;;;;9.90;6.93;;;28.00;60.30;;;;;;5014995;28;20356;-65
2023/06/17 11:04:18;;;;;;;11.13;6.65;;;28.10;60.40;;;;;;5015281;28;20046;-65
2023/06/17 11:06:47;;;;;;;11.73;7.28;;;28.20;61.20;;;;;;5014978;28;20038;-65
2023/06/17 11:09:13;;;;;;;10.52;6.43;;;28.10;62.40;;;;;;5013854;28;20145;-65
2023/06/17 11:11:39;;;;;;;8.93;6.40;;;28.30;60.40;;;;;;5013444;28;20097;-65
2023/06/17 11:14:05;;;;;;;9.82;7.15;;;28.30;59.30;;;;;;5015132;28;20050;-65
2023/06/17 11:16:32;;;;;;;11.48;6.93;;;28.50;58.60;;;;;;5015171;28;20398;-64
2023/06/17 11:18:59;;;;;;;10.98;7.00;;;28.50;59.70;;;;;;5014916;28;20120;-64
2023/06/17 11:21:25;;;;;;;11.95;7.57;;;28.70;61.10;;;;;;5014814;28;20050;-64
2023/06/17 11:23:52;;;;;;;9.77;6.80;;;28.90;60.90;;;;;;5014659;28;20096;-64
2023/06/17 11:26:18;;;;;;;9.60;6.40;;;28.90;59.80;;;;;;5014961;28;20045;-64
2023/06/17 11:28:45;;;;;;;9.55;6.82;;;28.70;58.90;;;;;;5014856;28;20548;-64
2023/06/17 11:31:11;;;;;;;8.90;6.30;;;28.70;57.90;;;;;;5013284;28;20049;-64
2023/06/17 11:33:37;;;;;;;8.55;6.60;;;28.90;58.00;;;;;;5013614;28;20475;-64
2023/06/17 11:36:08;;;;;;;10.20;7.00;;;28.70;57.20;;;;;;5014657;28;20428;-64
2023/06/17 11:38:34;;;;;;;;;;;28.80;59.30;;;;;;5015052;28;20087;-64
2023/06/17 11:41:00;;;;;;;11.48;6.80;;;28.90;59.40;;;;;;5014657;28;20332;-64
2023/06/17 11:43:26;;;;;;;11.20;6.43;;;29.10;59.40;;;;;;5014518;28;20162;-64
2023/06/17 11:45:58;;;;;;;10.00;6.90;;;29.20;59.60;;;;;;5013326;28;20125;-64
2023/06/17 11:48:34;;;;;;;9.98;7.05;;;29.30;59.00;;;;;;5013079;28;20049;-64
2023/06/17 11:51:00;;;;;;;10.07;6.35;;;29.40;56.10;;;;;;5013021;28;20057;-64
2023/06/17 11:53:45;;;;;;;9.52;6.40;;;29.50;55.20;;;;;;5014371;28;20041;-64
2023/06/17 11:56:13;;;;;;;11.38;6.82;;;29.60;56.10;;;;;;5013092;28;20057;-64
2023/06/17 11:58:43;;;;;;;9.18;6.30;;;29.60;56.50;;;;;;4997032;28;20120;-64
2023/06/17 12:01:12;;;;;;;9.23;6.32;;;29.60;56.80;;;;;;5014288;28;20046;-64
2023/06/17 12:03:38;;;;;;;7.85;5.70;;;29.70;56.70;;;;;;5014240;28;20145;-64
2023/06/17 12:06:03;;;;;;;8.93;5.50;;;29.50;54.70;;;;;;5014097;28;20038;-64
2023/06/17 12:08:37;;;;;;;8.63;5.82;;;29.20;51.90;;;;;;5014161;28;20100;-64
2023/06/17 12:11:07;;;;;;;7.82;5.60;;;29.00;52.60;;;;;;5014162;28;20041;-64
2023/06/17 12:13:40;;;;;;;8.82;5.43;;;28.80;53.20;;;;;;5013858;28;20080;-64
2023/06/17 12:16:23;;;;;;;9.50;5.70;;;28.80;53.10;;;;;;5014077;28;20042;-64
2023/06/17 12:18:50;;;;;;;8.07;5.70;;;28.90;52.70;;;;;;5013962;28;20045;-64
2023/06/17 12:21:19;;;;;;;8.48;5.65;;;29.00;53.70;;;;;;5013987;28;20041;-64
2023/06/17 12:23:45;;;;;;;7.75;5.13;;;29.30;51.60;;;;;;5013928;28;20441;-65
2023/06/17 12:26:11;;;;;;;8.13;5.25;;;29.20;50.60;;;;;;5013936;28;20068;-65
2023/06/17 12:28:40;;;;;;;7.93;5.28;;;29.00;50.10;;;;;;5013585;28;20041;-64
2023/06/17 12:31:05;;;;;;;7.72;5.22;;;28.60;50.50;;;;;;5013861;28;20107;-64
2023/06/17 12:33:31;;;;;;;8.30;5.47;;;28.70;51.70;;;;;;5013510;28;20042;-64